Time;durP1;ratioP1;P1;durP2;ratioP2;P2;SDS_P1;SDS_P2;PMS_P1;PMS_P2;Temp;Humidity;BMP_temperature;BMP_pressure;BME280_temperature;BME280_humidity;BME280_pressure;Samples;Min_cycle;Max_cycle;Signal;HPM_P1;HPM_P2
2022/01/09 00:00:18;;;;;;;5.45;4.97;;;4.60;99.90;;;;;;5030230;28;20040;-77
2022/01/09 00:02:44;;;;;;;7.13;6.18;;;4.60;99.90;;;;;;5012098;28;20104;-77
2022/01/09 00:05:11;;;;;;;6.35;4.88;;;4.60;99.90;;;;;;5029558;28;20045;-77
2022/01/09 00:07:37;;;;;;;4.97;4.68;;;4.60;99.90;;;;;;5046105;28;20045;-77
2022/01/09 00:10:05;;;;;;;4.97;4.47;;;4.60;99.90;;;;;;5030368;28;20071;-76
2022/01/09 00:12:30;;;;;;;4.85;4.55;;;4.60;99.90;;;;;;5027477;28;20064;-77
2022/01/09 00:14:56;;;;;;;5.63;5.10;;;4.60;99.90;;;;;;5030114;28;20398;-77
2022/01/09 00:17:22;;;;;;;5.32;4.88;;;4.50;99.90;;;;;;5030398;28;20045;-77
2022/01/09 00:19:48;;;;;;;4.05;3.85;;;4.50;99.90;;;;;;5030368;28;20053;-77
2022/01/09 00:22:16;;;;;;;4.25;3.95;;;4.60;99.90;;;;;;5020853;28;20041;-77
2022/01/09 00:24:42;;;;;;;4.10;3.80;;;4.50;99.90;;;;;;5046982;28;20124;-77
2022/01/09 00:27:07;;;;;;;4.45;4.15;;;4.50;99.90;;;;;;5029893;28;20133;-77
2022/01/09 00:29:33;;;;;;;4.28;4.00;;;4.60;99.90;;;;;;5030024;28;20041;-78
2022/01/09 00:31:59;;;;;;;5.05;4.70;;;4.60;99.90;;;;;;5019359;28;20516;-78
2022/01/09 00:34:25;;;;;;;3.83;3.63;;;4.60;99.90;;;;;;5029891;28;20506;-79
2022/01/09 00:36:50;;;;;;;5.45;5.05;;;4.50;99.90;;;;;;5029873;28;20077;-79
2022/01/09 00:39:16;;;;;;;4.82;4.53;;;4.50;99.90;;;;;;5022952;28;20120;-80
2022/01/09 00:41:42;;;;;;;5.10;4.70;;;4.50;99.90;;;;;;5000692;28;20051;-80
2022/01/09 00:44:08;;;;;;;4.30;4.00;;;4.50;99.90;;;;;;5015542;28;20050;-81
2022/01/09 00:46:34;;;;;;;305.33;89.88;;;4.50;99.90;;;;;;5025214;28;20037;-81
2022/01/09 00:49:04;;;;;;;7.85;7.20;;;4.50;99.90;;;;;;5018936;28;20081;-81
2022/01/09 00:51:30;;;;;;;6.68;6.25;;;4.50;99.90;;;;;;5029802;28;20099;-82
2022/01/09 00:53:56;;;;;;;7.22;6.68;;;4.50;99.90;;;;;;5026973;28;20076;-81
2022/01/09 00:56:22;;;;;;;5.80;5.50;;;4.60;99.90;;;;;;5017499;28;20441;-82
2022/01/09 00:58:48;;;;;;;6.40;6.00;;;4.60;99.90;;;;;;5029847;28;20094;-82
2022/01/09 01:01:14;;;;;;;6.82;6.18;;;4.60;99.90;;;;;;5029773;28;20041;-82
2022/01/09 01:03:40;;;;;;;6.45;6.05;;;4.50;99.90;;;;;;5011570;28;20485;-82
2022/01/09 01:06:05;;;;;;;5.82;5.50;;;4.50;99.90;;;;;;5045708;28;20041;-82
2022/01/09 01:08:31;;;;;;;5.40;5.10;;;4.60;99.90;;;;;;5022365;28;20155;-82
2022/01/09 01:10:57;;;;;;;5.40;5.07;;;4.50;99.90;;;;;;5016510;28;20045;-82
2022/01/09 01:13:23;;;;;;;5.60;5.30;;;4.60;99.90;;;;;;5048971;28;20038;-83
2022/01/09 01:15:49;;;;;;;5.07;4.78;;;4.50;99.90;;;;;;5039091;28;20073;-83
2022/01/09 01:18:15;;;;;;;5.45;5.15;;;4.60;99.90;;;;;;5042561;28;20038;-83
2022/01/09 01:20:41;;;;;;;5.50;5.20;;;4.60;99.90;;;;;;5041112;28;20180;-83
2022/01/09 01:23:07;;;;;;;5.15;4.85;;;4.60;99.90;;;;;;5020900;28;20839;-84
2022/01/09 01:25:35;;;;;;;6.30;5.90;;;4.60;99.90;;;;;;5061758;28;20045;-83
2022/01/09 01:28:01;;;;;;;6.10;5.70;;;4.60;99.90;;;;;;5029375;28;20048;-83
2022/01/09 01:30:27;;;;;;;6.20;5.80;;;4.60;99.90;;;;;;5020742;28;20041;-82
2022/01/09 01:32:52;;;;;;;5.43;5.13;;;4.60;99.90;;;;;;5028707;28;20051;-82
2022/01/09 01:35:19;;;;;;;5.32;5.03;;;4.60;99.90;;;;;;5029343;28;20060;-81
2022/01/09 01:37:44;;;;;;;7.72;7.22;;;4.60;99.90;;;;;;5024399;28;20796;-81
2022/01/09 01:40:14;;;;;;;5.70;5.40;;;4.60;99.90;;;;;;5028109;28;20079;-81
2022/01/09 01:42:40;;;;;;;5.72;5.40;;;4.60;99.90;;;;;;5028881;28;20051;-81
2022/01/09 01:45:08;;;;;;;4.97;4.68;;;4.60;99.90;;;;;;5011654;28;20037;-81
2022/01/09 01:47:33;;;;;;;5.03;4.72;;;4.60;99.90;;;;;;5023008;28;20132;-82
2022/01/09 01:49:59;;;;;;;5.53;5.22;;;4.60;99.90;;;;;;5028788;28;20559;-82
2022/01/09 01:52:34;;;;;;;5.20;4.90;;;4.60;99.90;;;;;;5021757;28;20037;-81
2022/01/09 01:55:00;;;;;;;4.97;4.68;;;4.60;99.90;;;;;;5008274;28;20046;-82
2022/01/09 01:57:28;;;;;;;5.07;4.78;;;4.60;99.90;;;;;;5061285;28;20052;-82
2022/01/09 01:59:55;;;;;;;4.80;4.50;;;4.60;99.90;;;;;;5028531;28;20045;-82
2022/01/09 02:02:22;;;;;;;4.97;4.68;;;4.60;99.90;;;;;;5024089;28;20041;-82
2022/01/09 02:04:48;;;;;;;4.85;4.57;;;4.60;99.90;;;;;;5028932;28;20453;-82
2022/01/09 02:07:14;;;;;;;5.28;4.88;;;4.60;99.90;;;;;;5027753;28;20037;-82
2022/01/09 02:09:40;;;;;;;6.15;5.75;;;4.60;99.90;;;;;;5028967;28;20033;-82
2022/01/09 02:12:07;;;;;;;5.30;5.00;;;4.70;99.90;;;;;;5017934;28;20052;-83
2022/01/09 02:14:37;;;;;;;7.53;7.03;;;4.70;99.90;;;;;;5028531;28;20049;-83
2022/01/09 02:17:04;;;;;;;5.07;4.78;;;4.70;99.90;;;;;;5028699;28;20045;-83
2022/01/09 02:19:31;;;;;;;4.75;4.45;;;4.70;99.90;;;;;;5015741;28;20045;-83
2022/01/09 02:21:59;;;;;;;5.53;5.22;;;4.70;99.90;;;;;;5011598;28;20136;-83
2022/01/09 02:24:25;;;;;;;5.28;4.97;;;4.70;99.90;;;;;;5011289;28;20042;-83
2022/01/09 02:26:51;;;;;;;5.00;4.70;;;4.80;99.90;;;;;;5044750;28;20124;-83
2022/01/09 02:29:18;;;;;;;4.90;4.60;;;4.80;99.90;;;;;;5015515;28;20038;-83
2022/01/09 02:31:45;;;;;;;11.02;10.05;;;4.80;99.90;;;;;;5028615;28;20045;-83
2022/01/09 02:34:11;;;;;;;43.55;29.33;;;4.90;99.90;;;;;;5012192;28;20043;-83
2022/01/09 02:36:37;;;;;;;470.73;324.33;;;4.90;99.90;;;;;;5008069;28;20050;-83
2022/01/09 02:39:03;;;;;;;154.40;69.88;;;4.90;99.90;;;;;;5042485;28;20479;-83
2022/01/09 02:41:29;;;;;;;7.55;7.15;;;5.00;99.90;;;;;;5011602;28;20076;-83
2022/01/09 02:43:54;;;;;;;21.30;18.25;;;5.10;99.90;;;;;;5027545;28;20041;-83
2022/01/09 02:46:43;;;;;;;7.40;7.00;;;5.10;99.90;;;;;;5019033;28;20032;-83
2022/01/09 02:49:09;;;;;;;10.68;10.07;;;5.20;99.90;;;;;;5012150;28;20051;-84
2022/01/09 02:51:35;;;;;;;13.48;12.73;;;5.20;99.90;;;;;;5028009;28;20080;-84
2022/01/09 02:55:05;;;;;;;12.32;11.63;;;5.20;99.90;;;;;;5011073;28;20076;-84
2022/01/09 02:56:47;;;;;;;14.15;13.35;;;5.30;99.90;;;;;;5020625;28;20080;-85
2022/01/09 02:59:12;;;;;;;13.40;12.70;;;5.30;99.90;;;;;;5032420;28;20080;-85
2022/01/09 03:01:38;;;;;;;14.57;13.77;;;5.40;99.90;;;;;;5031927;28;20132;-84
2022/01/09 03:04:04;;;;;;;14.48;10.55;;;5.40;99.90;;;;;;5004721;28;20524;-85
2022/01/09 03:06:30;;;;;;;10.82;9.32;;;5.40;99.90;;;;;;5031934;28;20041;-84
2022/01/09 03:09:00;;;;;;;10.90;9.70;;;5.50;99.90;;;;;;5032082;28;20049;-85
2022/01/09 03:11:26;;;;;;;9.20;8.43;;;5.60;99.90;;;;;;5022438;28;20141;-85
2022/01/09 03:13:51;;;;;;;8.55;8.05;;;5.60;99.90;;;;;;5031181;28;20149;-85
2022/01/09 03:16:17;;;;;;;8.40;7.97;;;5.70;99.90;;;;;;5021874;28;20049;-85
2022/01/09 03:18:43;;;;;;;10.70;9.77;;;5.70;99.90;;;;;;5043834;28;20049;-85
2022/01/09 03:21:08;;;;;;;9.60;9.10;;;5.70;99.90;;;;;;5022555;28;20560;-85
2022/01/09 03:23:34;;;;;;;11.20;10.60;;;5.70;99.90;;;;;;5015590;28;20053;-85
2022/01/09 03:26:02;;;;;;;27.52;12.88;;;5.70;99.90;;;;;;5015359;28;20068;-85
2022/01/09 03:28:28;;;;;;;16.45;12.00;;;5.80;99.90;;;;;;5012449;28;20050;-85
2022/01/09 03:30:54;;;;;;;20.60;14.35;;;5.90;99.90;;;;;;5031697;28;20409;-85
2022/01/09 03:33:20;;;;;;;20.15;18.85;;;6.00;99.90;;;;;;5013224;28;20041;-85
2022/01/09 03:35:46;;;;;;;23.67;21.75;;;6.10;99.90;;;;;;5014078;28;20045;-85
2022/01/09 03:38:12;;;;;;;31.15;23.55;;;6.10;99.90;;;;;;5044983;28;20038;-85
2022/01/09 03:40:38;;;;;;;37.38;25.63;;;6.20;99.90;;;;;;5041297;28;20038;-85
2022/01/09 03:43:04;;;;;;;53.28;29.55;;;6.20;99.90;;;;;;5012500;28;20053;-84
2022/01/09 03:45:30;;;;;;;32.70;29.90;;;6.30;99.90;;;;;;5013999;28;20066;-84
2022/01/09 03:47:56;;;;;;;42.97;39.20;;;6.30;99.90;;;;;;5048102;28;20052;-84
2022/01/09 03:50:23;;;;;;;43.90;39.38;;;6.30;99.90;;;;;;5045820;28;20041;-84
2022/01/09 03:52:49;;;;;;;86.65;36.15;;;6.40;99.90;;;;;;5030628;28;20041;-84
2022/01/09 03:55:20;;;;;;;15.43;8.57;;;6.40;99.90;;;;;;5014836;28;20081;-83
2022/01/09 03:57:48;;;;;;;9.38;6.20;;;6.40;99.90;;;;;;5030885;28;20041;-83
2022/01/09 04:00:20;;;;;;;8.15;6.80;;;6.40;99.90;;;;;;5030102;28;20048;-83
2022/01/09 04:02:48;;;;;;;19.63;9.52;;;6.40;99.90;;;;;;5043114;28;20447;-83
2022/01/09 04:05:14;;;;;;;30.08;14.35;;;6.40;99.90;;;;;;5030638;28;20037;-84
2022/01/09 04:07:40;;;;;;;31.98;8.77;;;6.50;99.90;;;;;;5046406;28;20044;-83
2022/01/09 04:10:07;;;;;;;7.05;6.18;;;6.50;99.90;;;;;;5030826;28;20768;-83
2022/01/09 04:12:47;;;;;;;12.57;6.88;;;6.50;99.90;;;;;;5027129;28;20167;-83
2022/01/09 04:15:15;;;;;;;6.85;6.20;;;6.40;99.90;;;;;;5014064;28;20045;-83
2022/01/09 04:18:14;;;;;;;6.95;6.50;;;6.40;99.90;;;;;;5013844;28;20060;-83
2022/01/09 04:20:33;;;;;;;13.32;8.43;;;6.30;99.90;;;;;;5030644;28;20053;-83
2022/01/09 04:23:00;;;;;;;8.40;7.30;;;6.30;99.90;;;;;;5025552;28;20176;-83
2022/01/09 04:25:26;;;;;;;12.38;8.57;;;6.30;99.90;;;;;;5013283;28;20045;-83
2022/01/09 04:27:52;;;;;;;23.73;7.43;;;6.30;99.90;;;;;;5029797;28;20121;-82
2022/01/09 04:30:19;;;;;;;19.15;8.00;;;6.30;99.90;;;;;;5023164;28;20056;-82
2022/01/09 04:32:45;;;;;;;11.18;6.43;;;6.30;99.90;;;;;;5040080;28;20056;-83
2022/01/09 04:35:11;;;;;;;9.65;6.20;;;6.30;99.90;;;;;;5030673;28;20413;-83
2022/01/09 04:37:38;;;;;;;21.35;8.93;;;6.30;99.90;;;;;;5028830;28;20501;-83
2022/01/09 04:40:05;;;;;;;7.28;6.68;;;6.30;99.90;;;;;;5028693;28;20052;-83
2022/01/09 04:42:39;;;;;;;17.73;9.82;;;6.20;99.90;;;;;;5029374;28;20114;-83
2022/01/09 04:45:07;;;;;;;40.00;8.90;;;6.20;99.90;;;;;;5013020;28;20041;-83
2022/01/09 04:47:32;;;;;;;14.40;7.45;;;6.20;99.90;;;;;;5025805;28;20045;-84
2022/01/09 04:49:59;;;;;;;10.10;7.45;;;6.20;99.90;;;;;;5029964;28;20041;-83
2022/01/09 04:52:30;;;;;;;9.00;8.30;;;6.20;99.90;;;;;;5029844;28;20048;-83
2022/01/09 04:54:56;;;;;;;8.77;5.90;;;6.20;99.90;;;;;;5030086;28;20149;-83
2022/01/09 04:57:22;;;;;;;12.13;6.40;;;6.20;99.90;;;;;;5023199;28;20104;-83
2022/01/09 04:59:48;;;;;;;20.58;10.80;;;6.20;99.90;;;;;;5029977;28;20752;-83
2022/01/09 05:02:13;;;;;;;7.10;6.55;;;6.20;99.90;;;;;;5012099;28;20409;-83
2022/01/09 05:04:39;;;;;;;20.35;7.40;;;6.20;99.90;;;;;;5028777;28;20115;-83
2022/01/09 05:07:05;;;;;;;12.38;6.38;;;6.20;99.90;;;;;;5029350;28;20120;-83
2022/01/09 05:09:31;;;;;;;5.95;5.55;;;6.10;99.90;;;;;;5029320;28;20045;-83
2022/01/09 05:11:57;;;;;;;10.85;6.60;;;6.10;99.90;;;;;;5028570;28;20099;-83
2022/01/09 05:14:23;;;;;;;7.47;6.80;;;6.10;99.90;;;;;;5059905;28;20041;-83
2022/01/09 05:16:49;;;;;;;9.85;5.93;;;6.10;99.90;;;;;;5029292;28;20037;-82
2022/01/09 05:19:21;;;;;;;23.58;8.95;;;6.10;99.90;;;;;;5016193;28;20499;-82
2022/01/09 05:21:48;;;;;;;7.68;7.07;;;6.00;99.90;;;;;;5023628;28;20081;-83
2022/01/09 05:24:15;;;;;;;8.38;6.40;;;6.00;99.90;;;;;;5029291;28;20099;-82
2022/01/09 05:26:41;;;;;;;9.80;6.75;;;6.00;99.90;;;;;;5017849;28;20096;-84
2022/01/09 05:29:07;;;;;;;6.10;5.60;;;6.00;99.90;;;;;;5038932;28;20042;-82
2022/01/09 05:31:33;;;;;;;18.85;10.65;;;6.00;99.90;;;;;;5041660;28;20068;-82
2022/01/09 05:33:59;;;;;;;22.10;7.93;;;6.00;99.90;;;;;;5025943;28;20077;-82
2022/01/09 05:36:24;;;;;;;13.50;7.65;;;6.00;99.90;;;;;;5027843;28;20069;-82
2022/01/09 05:38:50;;;;;;;13.63;6.85;;;6.00;99.90;;;;;;5023906;28;20041;-82
2022/01/09 05:41:16;;;;;;;11.25;7.68;;;5.90;99.90;;;;;;5029281;28;20050;-82
2022/01/09 05:43:41;;;;;;;7.18;6.53;;;6.00;99.90;;;;;;5029068;28;20110;-82
2022/01/09 05:46:07;;;;;;;16.63;7.30;;;5.90;99.90;;;;;;5027812;28;20056;-83
2022/01/09 05:48:33;;;;;;;5.88;5.57;;;6.00;99.90;;;;;;5012566;28;20120;-82
2022/01/09 05:50:59;;;;;;;6.50;6.00;;;5.90;99.90;;;;;;5026018;28;20413;-82
2022/01/09 05:53:25;;;;;;;8.00;6.63;;;5.90;99.90;;;;;;5012478;28;20121;-83
2022/01/09 05:55:50;;;;;;;6.25;5.75;;;5.90;99.90;;;;;;5027885;28;20157;-83
2022/01/09 05:58:16;;;;;;;5.75;5.38;;;5.90;99.90;;;;;;5028908;28;20052;-83
2022/01/09 06:00:42;;;;;;;8.80;6.50;;;5.90;99.90;;;;;;5025576;28;20045;-83
2022/01/09 06:03:07;;;;;;;9.57;7.57;;;5.80;99.90;;;;;;5023801;28;20128;-83
2022/01/09 06:05:33;;;;;;;8.82;7.68;;;5.90;99.90;;;;;;5028069;28;20134;-83
2022/01/09 06:07:59;;;;;;;17.98;7.80;;;5.90;99.90;;;;;;5012765;28;20063;-83
2022/01/09 06:10:25;;;;;;;7.88;5.53;;;5.90;99.90;;;;;;5027531;28;20033;-83
2022/01/09 06:12:51;;;;;;;10.10;6.20;;;5.90;99.90;;;;;;5021777;28;20041;-84
2022/01/09 06:15:17;;;;;;;7.63;6.75;;;5.80;99.90;;;;;;5028405;28;20518;-83
2022/01/09 06:17:44;;;;;;;9.25;8.50;;;5.90;99.90;;;;;;5028030;28;20048;-83
2022/01/09 06:20:12;;;;;;;7.50;6.75;;;5.90;99.90;;;;;;5027565;28;20045;-83
2022/01/09 06:22:38;;;;;;;5.50;5.20;;;5.80;99.90;;;;;;5026138;28;20045;-83
2022/01/09 06:25:05;;;;;;;5.53;5.22;;;5.80;99.90;;;;;;5026541;28;20046;-84
2022/01/09 06:27:31;;;;;;;7.53;7.00;;;5.80;99.90;;;;;;5027900;28;20438;-83
2022/01/09 06:29:57;;;;;;;17.58;7.07;;;5.70;99.90;;;;;;5028673;28;20052;-83
2022/01/09 06:32:23;;;;;;;6.90;6.30;;;5.70;99.90;;;;;;5023915;28;20042;-84
2022/01/09 06:34:49;;;;;;;33.10;6.57;;;5.70;99.90;;;;;;5013775;28;20505;-84
2022/01/09 06:37:15;;;;;;;6.03;5.47;;;5.70;99.90;;;;;;5044100;28;20049;-83
2022/01/09 06:39:42;;;;;;;5.55;5.25;;;5.70;99.90;;;;;;5020696;28;20068;-84
2022/01/09 06:42:08;;;;;;;7.40;6.80;;;5.70;99.90;;;;;;5032443;28;20041;-83
2022/01/09 06:44:34;;;;;;;6.60;6.10;;;5.60;99.90;;;;;;5031937;28;20231;-84
2022/01/09 06:47:01;;;;;;;11.60;6.32;;;5.60;99.90;;;;;;5023560;28;20132;-84
2022/01/09 06:49:26;;;;;;;8.30;7.47;;;5.60;99.90;;;;;;5030070;28;20107;-84
2022/01/09 06:51:52;;;;;;;6.05;5.65;;;5.60;99.90;;;;;;5032670;28;20049;-84
2022/01/09 06:54:18;;;;;;;9.55;6.63;;;5.60;99.90;;;;;;5015844;28;20870;-84
2022/01/09 06:56:44;;;;;;;11.20;6.93;;;5.70;99.90;;;;;;5018112;28;20476;-84
2022/01/09 06:59:09;;;;;;;9.02;7.88;;;5.70;99.90;;;;;;5011047;28;20044;-84
2022/01/09 07:01:35;;;;;;;6.13;5.72;;;5.70;99.90;;;;;;5029618;28;20383;-84
2022/01/09 07:04:01;;;;;;;6.50;6.00;;;5.70;99.90;;;;;;5016739;28;20041;-84
2022/01/09 07:06:27;;;;;;;6.00;5.60;;;5.70;99.90;;;;;;5026384;28;20041;-84
2022/01/09 07:08:53;;;;;;;9.43;6.60;;;5.70;99.90;;;;;;5028259;28;20045;-84
2022/01/09 07:11:18;;;;;;;5.80;5.50;;;5.70;99.90;;;;;;5032050;28;20033;-84
2022/01/09 07:13:44;;;;;;;6.05;5.65;;;5.70;99.90;;;;;;5031794;28;20492;-85
2022/01/09 07:16:10;;;;;;;6.70;6.20;;;5.70;99.90;;;;;;5026877;28;20512;-84
2022/01/09 07:18:36;;;;;;;11.25;6.10;;;5.60;99.90;;;;;;5015352;28;20412;-84
2022/01/09 07:21:03;;;;;;;6.28;5.70;;;5.60;99.90;;;;;;5030886;28;20498;-84
2022/01/09 07:23:30;;;;;;;6.20;5.80;;;5.60;99.90;;;;;;5015321;28;20053;-85
2022/01/09 07:25:56;;;;;;;6.50;6.07;;;5.60;99.90;;;;;;5042933;28;20060;-84
2022/01/09 07:28:22;;;;;;;8.80;6.03;;;5.60;99.90;;;;;;5031619;28;20120;-84
2022/01/09 07:30:48;;;;;;;1999.90;999.90;;;5.50;99.90;;;;;;5031392;28;20461;-84
2022/01/09 07:33:14;;;;;;;1999.90;999.90;;;5.50;99.90;;;;;;5029562;28;20041;-84
2022/01/09 07:35:40;;;;;;;1999.90;999.90;;;5.50;99.90;;;;;;5014892;28;20044;-85
2022/01/09 07:38:05;;;;;;;1999.90;999.90;;;5.40;99.90;;;;;;5012902;28;20119;-84
2022/01/09 07:40:31;;;;;;;1999.90;999.90;;;5.40;99.90;;;;;;5022732;28;20554;-85
2022/01/09 07:42:57;;;;;;;1999.90;999.90;;;5.40;99.90;;;;;;5028864;28;20080;-84
2022/01/09 07:45:26;;;;;;;1999.90;999.90;;;5.40;99.90;;;;;;5028216;28;20120;-84
2022/01/09 07:48:11;;;;;;;1999.90;999.90;;;5.30;99.90;;;;;;5031406;28;20076;-83
2022/01/09 07:50:37;;;;;;;1999.90;999.90;;;5.30;99.90;;;;;;4999902;28;20179;-85
2022/01/09 07:53:03;;;;;;;1999.90;999.90;;;5.20;99.90;;;;;;5023958;28;20128;-85
2022/01/09 07:55:29;;;;;;;1999.90;999.90;;;5.20;99.90;;;;;;5034026;28;20052;-85
2022/01/09 07:57:54;;;;;;;1999.90;999.90;;;5.20;99.90;;;;;;5043690;28;20034;-84
2022/01/09 08:00:21;;;;;;;1517.68;758.47;;;5.20;99.90;;;;;;5043566;28;20497;-85
2022/01/09 08:02:47;;;;;;;16.05;3.97;;;5.20;99.90;;;;;;5022436;28;20862;-85
2022/01/09 08:05:15;;;;;;;10.57;4.47;;;5.20;99.90;;;;;;5014180;28;20046;-85
2022/01/09 08:07:41;;;;;;;12.73;5.00;;;5.20;99.90;;;;;;5009456;28;20147;-84
2022/01/09 08:10:08;;;;;;;4.60;4.20;;;5.20;99.90;;;;;;5020085;28;20057;-84
2022/01/09 08:12:33;;;;;;;15.48;4.05;;;5.20;99.90;;;;;;5014395;28;20064;-84
2022/01/09 08:14:59;;;;;;;9.45;4.13;;;5.20;99.90;;;;;;5030707;28;20053;-85
2022/01/09 08:17:25;;;;;;;5.80;3.70;;;5.20;99.90;;;;;;5007169;28;20041;-85
2022/01/09 08:19:51;;;;;;;8.13;3.90;;;5.20;99.90;;;;;;5011668;28;20461;-84
2022/01/09 08:22:17;;;;;;;14.45;4.20;;;5.20;99.90;;;;;;5015008;28;20044;-84
2022/01/09 08:24:43;;;;;;;22.40;4.82;;;5.10;99.90;;;;;;5020049;28;20752;-84
2022/01/09 08:27:09;;;;;;;11.75;4.82;;;5.20;99.90;;;;;;5012986;28;20437;-85
2022/01/09 08:29:37;;;;;;;5.65;3.53;;;5.20;99.90;;;;;;5019870;28;20041;-85
2022/01/09 08:32:04;;;;;;;9.68;3.78;;;5.20;99.90;;;;;;5029029;28;20517;-85
2022/01/09 08:34:30;;;;;;;8.98;4.07;;;5.20;99.90;;;;;;5014047;28;20065;-86
2022/01/09 08:36:55;;;;;;;10.15;3.97;;;5.20;99.90;;;;;;5017657;28;20472;-85
2022/01/09 08:39:21;;;;;;;17.42;5.18;;;5.20;99.90;;;;;;5040630;28;20048;-85
2022/01/09 08:41:47;;;;;;;6.80;3.65;;;5.20;99.90;;;;;;5016979;28;20041;-85
2022/01/09 08:44:13;;;;;;;3.17;2.97;;;5.20;99.90;;;;;;5030089;28;20482;-85
2022/01/09 08:46:39;;;;;;;5.88;3.63;;;5.20;99.90;;;;;;5030106;28;20452;-85
2022/01/09 08:49:05;;;;;;;11.10;3.83;;;5.20;99.90;;;;;;5026955;28;20038;-85
2022/01/09 08:51:31;;;;;;;20.50;5.95;;;5.20;99.90;;;;;;5020674;28;20096;-85
2022/01/09 08:53:58;;;;;;;9.57;4.35;;;5.30;99.90;;;;;;5025680;28;20402;-86
2022/01/09 08:56:26;;;;;;;14.68;4.30;;;5.30;99.90;;;;;;5041578;28;20044;-85
2022/01/09 08:58:53;;;;;;;18.52;4.82;;;5.40;99.90;;;;;;5030066;28;20080;-86
2022/01/09 09:01:18;;;;;;;13.43;4.35;;;5.40;99.90;;;;;;5029763;28;20045;-86
2022/01/09 09:03:45;;;;;;;8.30;4.68;;;5.40;99.90;;;;;;5026060;28;20037;-86
2022/01/09 09:06:17;;;;;;;7.70;4.18;;;5.40;99.90;;;;;;5023748;28;20152;-86
2022/01/09 09:08:44;;;;;;;8.57;4.55;;;5.40;99.90;;;;;;5029620;28;20052;-86
2022/01/09 09:11:11;;;;;;;15.80;4.28;;;5.40;99.90;;;;;;5013491;28;20414;-86
2022/01/09 09:13:38;;;;;;;8.48;4.72;;;5.40;99.90;;;;;;5018338;28;20111;-85
2022/01/09 09:16:05;;;;;;;11.15;5.40;;;5.40;99.90;;;;;;5020287;28;20067;-85
2022/01/09 09:18:31;;;;;;;7.53;4.13;;;5.50;99.90;;;;;;5059693;28;20045;-86
2022/01/09 09:20:57;;;;;;;4.55;3.78;;;5.50;99.90;;;;;;5011515;28;20045;-85
2022/01/09 09:23:23;;;;;;;11.77;3.78;;;5.50;99.90;;;;;;5011863;28;20454;-86
2022/01/09 09:25:49;;;;;;;12.32;5.40;;;5.50;99.90;;;;;;5028154;28;20076;-86
2022/01/09 09:28:15;;;;;;;10.02;4.05;;;5.50;99.90;;;;;;5008361;28;20041;-86
2022/01/09 09:30:41;;;;;;;12.93;4.35;;;5.50;99.90;;;;;;5047179;28;20046;-85
2022/01/09 09:33:07;;;;;;;7.63;4.18;;;5.50;99.90;;;;;;5012583;28;20077;-85
2022/01/09 09:35:33;;;;;;;4.60;3.47;;;5.50;99.90;;;;;;5020511;28;20083;-85
2022/01/09 09:37:59;;;;;;;10.93;4.68;;;5.50;99.90;;;;;;5008060;28;20041;-86
2022/01/09 09:40:26;;;;;;;14.73;4.68;;;5.50;99.90;;;;;;5024843;28;20077;-86
2022/01/09 09:42:53;;;;;;;6.80;3.88;;;5.60;99.90;;;;;;5036915;28;20045;-85
2022/01/09 09:45:19;;;;;;;5.90;3.88;;;5.60;99.90;;;;;;5023070;28;20095;-85
2022/01/09 09:47:45;;;;;;;5.53;3.97;;;5.60;99.90;;;;;;5027356;28;20033;-86
2022/01/09 09:50:15;;;;;;;8.43;4.20;;;5.60;99.90;;;;;;5029139;28;20044;-85
2022/01/09 09:52:42;;;;;;;8.15;3.90;;;5.60;99.90;;;;;;5028575;28;20067;-86
2022/01/09 09:55:08;;;;;;;7.22;4.03;;;5.60;99.90;;;;;;5026616;28;20137;-86
2022/01/09 09:57:34;;;;;;;8.80;3.97;;;5.60;99.90;;;;;;5028804;28;20503;-86
2022/01/09 10:00:01;;;;;;;10.43;3.85;;;5.60;99.90;;;;;;5028906;28;20049;-86
2022/01/09 10:02:59;;;;;;;12.02;4.90;;;5.60;99.90;;;;;;5008167;28;20043;-85
2022/01/09 10:05:28;;;;;;;10.10;4.07;;;5.60;99.90;;;;;;5011220;28;20054;-85
2022/01/09 10:08:03;;;;;;;5.40;3.53;;;5.60;99.90;;;;;;5027816;28;20052;-86
2022/01/09 10:10:31;;;;;;;11.05;4.10;;;5.60;99.90;;;;;;5031114;28;20037;-86
2022/01/09 10:13:12;;;;;;;6.47;4.65;;;5.60;99.90;;;;;;5031865;28;20033;-86
2022/01/09 10:15:55;;;;;;;3.85;3.47;;;5.50;99.90;;;;;;5040647;28;20045;-85
2022/01/09 10:18:40;;;;;;;8.43;4.18;;;5.50;99.90;;;;;;5016513;28;20037;-86
2022/01/09 10:21:08;;;;;;;8.63;4.00;;;5.60;99.90;;;;;;5013113;28;20044;-85
2022/01/09 10:23:34;;;;;;;16.40;5.75;;;5.60;99.90;;;;;;5021863;28;20405;-85
2022/01/09 10:26:12;;;;;;;5.45;4.43;;;5.60;99.90;;;;;;5032619;28;20041;-85
2022/01/09 10:28:39;;;;;;;11.35;5.65;;;5.60;99.90;;;;;;5031739;28;20044;-86
2022/01/09 10:31:15;;;;;;;11.65;5.38;;;5.70;99.90;;;;;;5012321;28;20038;-85
2022/01/09 10:34:06;;;;;;;5.85;4.30;;;5.70;99.90;;;;;;5025409;28;20041;-86
2022/01/09 10:36:49;;;;;;;14.63;6.22;;;5.80;99.90;;;;;;5038471;28;20417;-86
2022/01/09 10:39:28;;;;;;;6.35;5.75;;;5.80;99.90;;;;;;5025016;28;20421;-85
2022/01/09 10:42:03;;;;;;;4.75;4.25;;;5.80;99.90;;;;;;5033097;28;20455;-86
2022/01/09 10:44:35;;;;;;;14.68;5.18;;;5.80;99.90;;;;;;5032137;28;20132;-86
2022/01/09 10:47:14;;;;;;;9.15;5.10;;;5.80;99.90;;;;;;5029796;28;20057;-85
2022/01/09 10:49:43;;;;;;;8.32;5.65;;;5.80;99.90;;;;;;5024323;28;20038;-86
2022/01/09 10:52:25;;;;;;;5.80;5.00;;;5.90;99.90;;;;;;5032460;28;20433;-85
2022/01/09 10:54:53;;;;;;;7.78;4.63;;;5.80;99.90;;;;;;5032460;28;20116;-86
2022/01/09 10:57:24;;;;;;;8.57;4.57;;;5.90;99.90;;;;;;5022724;28;20052;-85
2022/01/09 10:59:50;;;;;;;16.08;5.78;;;5.90;99.90;;;;;;5032195;28;20045;-85
2022/01/09 11:02:18;;;;;;;7.05;4.75;;;5.90;99.90;;;;;;5029691;28;20128;-86
2022/01/09 11:04:46;;;;;;;7.70;4.90;;;5.90;99.90;;;;;;5059019;28;20048;-85
2022/01/09 11:07:12;;;;;;;4.18;3.88;;;6.00;99.90;;;;;;5031895;28;20037;-85
2022/01/09 11:09:40;;;;;;;5.30;4.90;;;6.10;99.90;;;;;;5014476;28;20180;-85
2022/01/09 11:12:08;;;;;;;8.13;4.80;;;6.10;99.90;;;;;;5045867;28;20494;-85
2022/01/09 11:14:41;;;;;;;7.97;5.50;;;6.20;99.90;;;;;;5006805;28;20058;-86
2022/01/09 11:17:08;;;;;;;9.73;5.38;;;6.30;99.90;;;;;;5015401;28;20038;-86
2022/01/09 11:19:35;;;;;;;10.77;5.40;;;6.40;99.90;;;;;;5012075;28;20045;-85
2022/01/09 11:22:06;;;;;;;8.00;5.05;;;6.50;99.90;;;;;;5028260;28;20049;-85
2022/01/09 11:24:50;;;;;;;16.45;5.68;;;6.60;99.90;;;;;;5020255;28;21228;-85
2022/01/09 11:27:46;;;;;;;11.30;5.00;;;6.70;99.90;;;;;;5025441;28;20492;-85
2022/01/09 11:30:17;;;;;;;14.13;5.40;;;6.90;99.90;;;;;;5043469;28;20045;-86
2022/01/09 11:33:19;;;;;;;6.60;4.90;;;7.10;99.90;;;;;;5025073;28;20030;-86
2022/01/09 11:36:06;;;;;;;10.75;5.75;;;7.20;99.90;;;;;;5050750;28;20056;-86
2022/01/09 11:38:45;;;;;;;6.85;5.07;;;7.40;99.90;;;;;;5049787;28;20072;-85
2022/01/09 11:41:17;;;;;;;7.10;4.35;;;7.50;99.90;;;;;;5052441;28;20492;-85
2022/01/09 11:44:00;;;;;;;9.20;4.68;;;7.60;99.90;;;;;;5009216;28;20502;-85
2022/01/09 11:46:29;;;;;;;8.82;4.63;;;7.70;99.90;;;;;;5033925;28;20124;-85
2022/01/09 11:48:55;;;;;;;9.88;4.47;;;7.80;99.90;;;;;;5025951;28;20037;-86
2022/01/09 11:51:24;;;;;;;12.50;5.15;;;7.90;99.90;;;;;;5027735;28;20042;-85
2022/01/09 11:54:20;;;;;;;4.97;4.40;;;8.00;99.90;;;;;;5053795;28;20065;-85
2022/01/09 11:57:06;;;;;;;16.40;6.30;;;8.00;99.90;;;;;;5036183;28;20156;-86
2022/01/09 11:59:51;;;;;;;8.63;4.40;;;8.00;99.90;;;;;;5021506;28;20401;-85
2022/01/09 12:02:17;;;;;;;9.75;5.05;;;8.00;99.90;;;;;;5026708;28;20120;-85
2022/01/09 12:04:43;;;;;;;14.70;5.22;;;7.90;99.90;;;;;;5055027;28;20525;-86
2022/01/09 12:07:18;;;;;;;5.60;4.30;;;7.80;99.90;;;;;;5030648;28;20033;-86
2022/01/09 12:09:50;;;;;;;5.07;4.57;;;7.80;99.90;;;;;;5031302;28;20037;-86
2022/01/09 12:12:22;;;;;;;4.32;4.03;;;7.80;99.90;;;;;;5025865;28;20041;-85
2022/01/09 12:14:54;;;;;;;3.70;3.25;;;7.80;99.90;;;;;;5024107;28;20048;-85
2022/01/09 12:17:25;;;;;;;4.43;4.03;;;7.90;99.90;;;;;;5018781;28;20124;-85
2022/01/09 12:20:10;;;;;;;12.23;4.50;;;8.00;99.90;;;;;;5030915;28;20480;-86
2022/01/09 12:22:51;;;;;;;5.25;3.75;;;7.90;99.90;;;;;;5038720;28;20504;-86
2022/01/09 12:25:22;;;;;;;11.85;4.93;;;7.80;99.90;;;;;;5030201;28;20052;-85
2022/01/09 12:28:01;;;;;;;5.80;4.22;;;7.60;99.90;;;;;;5030035;28;20069;-86
2022/01/09 12:30:33;;;;;;;4.07;3.78;;;7.50;99.90;;;;;;5019632;28;20288;-85
2022/01/09 12:33:20;;;;;;;8.68;4.20;;;7.40;99.90;;;;;;5030331;28;20083;-85
2022/01/09 12:35:56;;;;;;;6.82;4.43;;;7.40;99.90;;;;;;5045035;28;20045;-86
2022/01/09 12:38:23;;;;;;;16.17;5.75;;;7.40;99.90;;;;;;5021303;28;20040;-85
2022/01/09 12:41:01;;;;;;;36.45;4.82;;;7.40;99.90;;;;;;5046295;28;20049;-85
2022/01/09 12:43:28;;;;;;;4.30;3.90;;;7.40;99.90;;;;;;5013601;28;20045;-85
2022/01/09 12:45:55;;;;;;;4.88;4.40;;;7.40;99.90;;;;;;5027431;28;20919;-85
2022/01/09 12:48:29;;;;;;;16.25;4.80;;;7.40;99.90;;;;;;5030233;28;20037;-85
2022/01/09 12:51:05;;;;;;;5.85;4.35;;;7.50;99.90;;;;;;5030532;28;20041;-85
2022/01/09 12:53:37;;;;;;;6.60;4.25;;;7.50;99.90;;;;;;5030028;28;20037;-85
2022/01/09 12:56:04;;;;;;;5.05;4.43;;;7.50;99.90;;;;;;5048657;28;20044;-85